createdAt,value
2017-11-22T00:02:20.125Z,5.60
2017-11-22T00:04:47.910Z,5.70
2017-11-22T00:07:16.518Z,5.70
2017-11-22T00:09:45.047Z,5.70
2017-11-22T00:12:12.835Z,5.70
2017-11-22T00:14:40.665Z,5.70
2017-11-22T00:17:08.434Z,5.60
2017-11-22T00:19:36.210Z,5.60
2017-11-22T00:22:04.041Z,5.70
2017-11-22T00:24:31.817Z,5.70
2017-11-22T00:26:59.578Z,5.70
2017-11-22T00:29:27.387Z,5.70
2017-11-22T00:31:55.916Z,5.70
2017-11-22T00:34:23.659Z,5.70
2017-11-22T00:36:51.475Z,5.70
2017-11-22T00:39:19.282Z,5.60
2017-11-22T00:41:47.041Z,5.70
2017-11-22T00:44:14.846Z,5.60
2017-11-22T00:46:42.595Z,5.60
2017-11-22T00:49:10.362Z,5.60
2017-11-22T00:51:38.184Z,5.60
2017-11-22T00:54:05.940Z,5.60
2017-11-22T00:56:34.459Z,5.70
2017-11-22T00:59:02.267Z,5.70
2017-11-22T01:01:30.801Z,5.60
2017-11-22T01:03:58.566Z,5.50
2017-11-22T01:06:26.368Z,5.60
2017-11-22T01:08:54.879Z,5.60
2017-11-22T01:11:22.623Z,5.60
2017-11-22T01:13:51.196Z,5.60
2017-11-22T01:16:19.718Z,5.70
2017-11-22T01:18:47.464Z,5.60
2017-11-22T01:21:15.575Z,5.70
2017-11-22T01:23:43.326Z,5.60
2017-11-22T01:26:11.092Z,5.60
2017-11-22T01:28:38.905Z,5.70
2017-11-22T01:31:06.671Z,5.70
2017-11-22T01:33:34.430Z,5.70
2017-11-22T01:36:02.236Z,5.80
2017-11-22T01:38:30.000Z,5.70
2017-11-22T01:40:57.754Z,5.70
2017-11-22T01:43:25.563Z,5.80
2017-11-22T01:45:53.323Z,5.70
2017-11-22T01:48:21.856Z,5.70
2017-11-22T01:50:49.667Z,5.70
2017-11-22T01:53:18.188Z,5.70
2017-11-22T01:55:45.946Z,5.70
2017-11-22T01:58:13.756Z,5.70
2017-11-22T02:00:48.311Z,5.80
2017-11-22T02:03:19.012Z,5.70
2017-11-22T02:05:46.763Z,5.70
2017-11-22T02:08:14.511Z,5.80
2017-11-22T02:10:42.314Z,5.90
2017-11-22T02:13:10.822Z,5.90
2017-11-22T02:15:38.570Z,5.90
2017-11-22T02:18:06.379Z,5.90
2017-11-22T02:20:34.127Z,5.90
2017-11-22T02:23:01.875Z,5.90
2017-11-22T02:25:29.680Z,5.90
2017-11-22T02:27:57.453Z,5.90
2017-11-22T02:30:25.991Z,5.90
2017-11-22T02:32:53.809Z,5.90
2017-11-22T02:35:22.333Z,6.00
2017-11-22T02:37:50.098Z,6.00
2017-11-22T02:40:17.921Z,6.00
2017-11-22T02:42:45.676Z,6.00
2017-11-22T02:45:14.213Z,6.00
2017-11-22T02:47:42.033Z,6.00
2017-11-22T02:50:09.804Z,6.00
2017-11-22T02:52:37.584Z,6.00
2017-11-22T02:55:06.181Z,6.00
2017-11-22T02:57:33.946Z,6.00
2017-11-22T03:00:01.700Z,6.10
2017-11-22T03:02:29.510Z,6.10
2017-11-22T03:04:58.025Z,6.00
2017-11-22T03:07:25.783Z,5.90
2017-11-22T03:09:53.591Z,6.00
2017-11-22T03:12:21.336Z,6.00
2017-11-22T03:14:49.085Z,5.90
2017-11-22T03:17:16.888Z,5.90
2017-11-22T03:19:45.399Z,6.00
2017-11-22T03:22:13.156Z,6.00
2017-11-22T03:24:40.988Z,6.00
2017-11-22T03:27:09.499Z,6.10
2017-11-22T03:29:37.265Z,6.10
2017-11-22T03:32:05.066Z,6.10
2017-11-22T03:34:32.853Z,6.10
2017-11-22T03:37:01.423Z,6.20
2017-11-22T03:39:30.012Z,6.20
2017-11-22T03:41:58.523Z,6.20
2017-11-22T03:44:26.300Z,6.20
2017-11-22T03:46:54.104Z,6.20
2017-11-22T03:49:21.851Z,6.30
2017-11-22T03:51:56.176Z,6.40
2017-11-22T03:54:23.952Z,6.30
2017-11-22T03:56:52.474Z,6.30
2017-11-22T03:59:20.292Z,6.30
2017-11-22T04:01:48.043Z,6.30
2017-11-22T04:04:20.879Z,6.40
2017-11-22T04:06:48.663Z,6.40
2017-11-22T04:09:16.420Z,6.30
2017-11-22T04:11:44.252Z,6.40
2017-11-22T04:14:12.003Z,6.30
2017-11-22T04:16:40.519Z,6.40
2017-11-22T04:19:13.919Z,6.40
2017-11-22T04:21:41.668Z,6.40
2017-11-22T04:24:09.412Z,6.40
2017-11-22T04:26:37.212Z,6.50
2017-11-22T04:29:04.955Z,6.50
2017-11-22T04:31:32.701Z,6.60
2017-11-22T04:34:00.503Z,6.60
2017-11-22T04:36:28.244Z,6.60
2017-11-22T04:38:55.999Z,6.70
2017-11-22T04:41:23.804Z,6.70
2017-11-22T04:43:51.565Z,6.70
2017-11-22T04:46:19.311Z,6.80
2017-11-22T04:48:47.131Z,6.70
2017-11-22T04:51:14.890Z,6.80
2017-11-22T04:53:42.652Z,6.80
2017-11-22T04:56:10.462Z,6.80
2017-11-22T04:58:38.222Z,6.80
2017-11-22T05:01:05.962Z,6.80
2017-11-22T05:03:33.762Z,6.80
2017-11-22T05:06:01.515Z,6.80
2017-11-22T05:08:29.275Z,6.90
2017-11-22T05:10:57.092Z,6.90
2017-11-22T05:13:24.844Z,6.90
2017-11-22T05:15:52.608Z,6.90
2017-11-22T05:18:20.428Z,7.00
2017-11-22T05:20:48.177Z,7.00
2017-11-22T05:23:15.927Z,7.00
2017-11-22T05:25:43.733Z,6.90
2017-11-22T05:28:12.263Z,7.00
2017-11-22T05:30:40.016Z,7.00
2017-11-22T05:33:07.820Z,7.00
2017-11-22T05:35:35.573Z,7.00
2017-11-22T05:38:03.319Z,7.10
2017-11-22T05:40:31.123Z,7.10
2017-11-22T05:42:59.636Z,7.10
2017-11-22T05:45:27.397Z,7.10
2017-11-22T05:47:55.211Z,7.20
2017-11-22T05:50:22.981Z,7.20
2017-11-22T05:52:51.498Z,7.30
2017-11-22T05:55:19.307Z,7.20
2017-11-22T05:57:47.069Z,7.20
2017-11-22T06:00:14.830Z,7.20
2017-11-22T06:02:42.635Z,7.10
2017-11-22T06:05:10.383Z,7.20
2017-11-22T06:07:38.149Z,7.20
2017-11-22T06:10:05.951Z,7.20
2017-11-22T06:12:33.696Z,7.30
2017-11-22T06:15:01.436Z,7.20
2017-11-22T06:17:29.268Z,7.30
2017-11-22T06:19:57.031Z,7.20
2017-11-22T06:22:24.785Z,7.30
2017-11-22T06:24:52.588Z,7.20
2017-11-22T06:27:20.356Z,7.30
2017-11-22T06:29:50.048Z,7.30
2017-11-22T06:32:17.856Z,7.40
2017-11-22T06:34:45.610Z,7.40
2017-11-22T06:37:13.364Z,7.40
2017-11-22T06:39:41.167Z,7.40
2017-11-22T06:42:08.912Z,7.40
2017-11-22T06:44:36.660Z,7.40
2017-11-22T06:47:04.459Z,7.40
2017-11-22T06:49:32.205Z,7.50
2017-11-22T06:51:59.948Z,7.50
2017-11-22T06:54:27.755Z,7.50
2017-11-22T06:56:56.276Z,7.60
2017-11-22T06:59:24.023Z,7.60
2017-11-22T07:01:53.606Z,7.60
2017-11-22T07:04:22.116Z,7.70
2017-11-22T07:06:49.871Z,7.70
2017-11-22T07:09:17.676Z,7.70
2017-11-22T07:11:45.442Z,7.80
2017-11-22T07:14:13.213Z,7.80
2017-11-22T07:16:46.827Z,7.80
2017-11-22T07:19:21.855Z,7.80
2017-11-22T07:21:50.419Z,7.90
2017-11-22T07:24:18.169Z,7.90
2017-11-22T07:26:45.915Z,7.90
2017-11-22T07:29:13.717Z,7.90
2017-11-22T07:31:41.464Z,7.90
2017-11-22T07:34:09.208Z,8.00
2017-11-22T07:36:42.704Z,7.90
2017-11-22T07:39:10.454Z,7.90
2017-11-22T07:41:38.219Z,8.00
2017-11-22T07:44:06.098Z,8.10
2017-11-22T07:46:33.852Z,8.10
2017-11-22T07:49:01.596Z,8.00
2017-11-22T07:51:35.123Z,8.10
2017-11-22T07:54:02.880Z,8.20
2017-11-22T07:56:37.316Z,8.20
2017-11-22T07:59:05.981Z,8.30
2017-11-22T08:01:33.736Z,8.30
2017-11-22T08:04:08.005Z,8.50
2017-11-22T08:06:35.755Z,8.40
2017-11-22T08:09:04.278Z,8.50
2017-11-22T08:11:32.091Z,8.40
2017-11-22T08:14:00.604Z,8.40
2017-11-22T08:16:28.355Z,8.40
2017-11-22T08:18:56.151Z,8.50
2017-11-22T08:21:23.930Z,8.60
2017-11-22T08:23:51.674Z,8.60
2017-11-22T08:26:20.247Z,8.50
2017-11-22T08:28:48.005Z,8.50
2017-11-22T08:31:15.756Z,8.50
2017-11-22T08:33:43.555Z,8.50
2017-11-22T08:36:11.294Z,8.60
2017-11-22T08:38:39.053Z,8.70
2017-11-22T08:41:06.851Z,8.80
2017-11-22T08:43:34.616Z,8.70
2017-11-22T08:46:02.361Z,8.70
2017-11-22T08:48:30.160Z,8.80
2017-11-22T08:50:58.672Z,8.70
2017-11-22T08:53:26.424Z,8.70
2017-11-22T08:55:59.924Z,8.80
2017-11-22T08:58:27.667Z,8.80
2017-11-22T09:00:55.412Z,8.90
2017-11-22T09:03:23.976Z,8.90
2017-11-22T09:05:57.316Z,8.90
2017-11-22T09:08:25.115Z,8.90
2017-11-22T09:10:52.876Z,8.80
2017-11-22T09:13:28.405Z,8.90
2017-11-22T09:15:56.142Z,8.90
2017-11-22T09:18:29.620Z,8.90
2017-11-22T09:20:57.386Z,8.90
2017-11-22T09:23:25.135Z,8.80
2017-11-22T09:25:53.698Z,8.80
2017-11-22T09:28:21.443Z,8.80
2017-11-22T09:30:53.987Z,8.80
2017-11-22T09:33:21.768Z,8.80
2017-11-22T09:35:49.510Z,8.90
2017-11-22T09:38:17.310Z,9.10
2017-11-22T09:40:45.053Z,9.20
2017-11-22T09:43:12.802Z,9.30
2017-11-22T09:45:40.619Z,9.40
2017-11-22T09:48:09.138Z,9.50
2017-11-22T09:50:36.887Z,9.40
2017-11-22T09:53:04.693Z,9.50
2017-11-22T09:55:32.429Z,9.50
2017-11-22T09:58:00.175Z,9.50
2017-11-22T10:00:27.976Z,9.60
2017-11-22T10:02:55.724Z,9.60
2017-11-22T10:05:23.470Z,9.50
2017-11-22T10:07:51.286Z,9.50
2017-11-22T10:10:19.816Z,9.50
2017-11-22T10:12:47.563Z,9.40
2017-11-22T10:15:15.356Z,9.40
2017-11-22T10:17:43.112Z,9.40
2017-11-22T10:20:16.520Z,9.40
2017-11-22T10:22:46.180Z,9.70
2017-11-22T10:25:22.003Z,9.80
2017-11-22T10:28:11.290Z,10.30
2017-11-22T10:30:39.135Z,10.30
2017-11-22T10:33:13.187Z,10.90
2017-11-22T10:35:41.003Z,10.90
2017-11-22T10:38:08.773Z,11.10
2017-11-22T10:40:37.298Z,11.30
2017-11-22T10:43:05.099Z,11.30
2017-11-22T10:45:32.858Z,11.30
2017-11-22T10:48:00.617Z,11.20
2017-11-22T10:50:28.425Z,11.20
2017-11-22T10:52:56.171Z,11.10
2017-11-22T10:55:24.695Z,11.00
2017-11-22T10:57:52.519Z,11.00
2017-11-22T11:00:20.291Z,10.80
2017-11-22T11:02:48.043Z,10.80
2017-11-22T11:05:15.854Z,10.70
2017-11-22T11:07:43.600Z,10.70
2017-11-22T11:10:11.360Z,10.50
2017-11-22T11:12:39.164Z,10.40
2017-11-22T11:15:06.911Z,10.30
2017-11-22T11:17:34.655Z,10.20
2017-11-22T11:20:02.458Z,10.10
2017-11-22T11:22:30.974Z,10.10
2017-11-22T11:24:58.727Z,10.10
2017-11-22T11:27:26.532Z,10.00
2017-11-22T11:29:54.280Z,10.00
2017-11-22T11:32:22.038Z,10.00
2017-11-22T11:34:49.862Z,10.00
2017-11-22T11:37:17.620Z,10.00
2017-11-22T11:39:46.134Z,10.00
2017-11-22T11:42:13.974Z,9.90
2017-11-22T11:44:41.729Z,9.90
2017-11-22T11:47:09.478Z,9.90
2017-11-22T11:49:38.043Z,9.90
2017-11-22T11:52:05.799Z,9.90
2017-11-22T11:54:33.550Z,9.90
2017-11-22T11:57:01.346Z,9.90
2017-11-22T11:59:29.134Z,10.00
2017-11-22T12:01:56.886Z,10.00
2017-11-22T12:04:24.690Z,10.10
2017-11-22T12:06:52.433Z,10.20
2017-11-22T12:09:20.191Z,10.20
2017-11-22T12:11:48.007Z,10.20
2017-11-22T12:14:16.518Z,10.20
2017-11-22T12:16:44.273Z,10.20
2017-11-22T12:19:12.115Z,10.30
2017-11-22T12:21:40.635Z,10.40
2017-11-22T12:24:08.383Z,10.40
2017-11-22T12:26:36.189Z,10.50
2017-11-22T12:29:03.949Z,10.50
2017-11-22T12:31:31.694Z,10.50
2017-11-22T12:33:59.494Z,10.60
2017-11-22T12:36:27.245Z,10.60
2017-11-22T12:38:54.998Z,10.70
2017-11-22T12:41:22.800Z,10.70
2017-11-22T12:43:51.310Z,10.70
2017-11-22T12:46:19.055Z,10.70
2017-11-22T12:48:46.860Z,10.70
2017-11-22T12:51:14.640Z,10.80
2017-11-22T12:53:42.386Z,10.80
2017-11-22T12:56:10.196Z,10.70
2017-11-22T12:58:37.957Z,10.60
2017-11-22T13:01:05.721Z,10.70
2017-11-22T13:03:33.532Z,10.60
2017-11-22T13:06:01.295Z,10.60
2017-11-22T13:08:29.825Z,10.50
2017-11-22T13:10:58.388Z,10.40
2017-11-22T13:13:26.902Z,10.40
2017-11-22T13:15:54.657Z,10.30
2017-11-22T13:18:22.461Z,10.40
2017-11-22T13:20:50.223Z,10.30
2017-11-22T13:23:17.998Z,10.30
2017-11-22T13:25:45.801Z,10.30
2017-11-22T13:28:13.595Z,10.20
2017-11-22T13:30:42.108Z,10.20
2017-11-22T13:33:09.909Z,10.20
2017-11-22T13:35:37.658Z,10.20
2017-11-22T13:38:05.437Z,10.30
2017-11-22T13:40:33.262Z,10.20
2017-11-22T13:43:01.790Z,10.30
2017-11-22T13:45:29.551Z,10.20
2017-11-22T13:47:57.362Z,10.20
2017-11-22T13:50:25.143Z,10.30
2017-11-22T13:52:53.665Z,10.20
2017-11-22T13:55:21.494Z,10.20
2017-11-22T13:57:49.260Z,10.20
2017-11-22T14:00:17.036Z,10.10
2017-11-22T14:02:44.863Z,10.10
2017-11-22T14:05:13.395Z,10.10
2017-11-22T14:07:41.160Z,10.10
2017-11-22T14:10:09.259Z,10.10
2017-11-22T14:12:37.033Z,10.10
2017-11-22T14:15:05.563Z,10.00
2017-11-22T14:17:33.396Z,10.00
2017-11-22T14:20:01.175Z,10.10
2017-11-22T14:22:28.952Z,10.10
2017-11-22T14:24:56.795Z,10.00
2017-11-22T14:27:24.552Z,10.00
2017-11-22T14:29:52.316Z,10.00
2017-11-22T14:32:20.126Z,10.00
2017-11-22T14:34:47.918Z,10.00
2017-11-22T14:37:16.459Z,9.90
2017-11-22T14:39:44.274Z,9.90
2017-11-22T14:42:12.049Z,9.90
2017-11-22T14:44:39.814Z,9.90
2017-11-22T14:47:07.633Z,9.90
2017-11-22T14:49:35.399Z,9.90
2017-11-22T14:52:03.943Z,9.80
2017-11-22T14:54:31.760Z,9.80
2017-11-22T14:56:59.522Z,9.80
2017-11-22T14:59:27.290Z,9.80
2017-11-22T15:01:55.107Z,9.80
2017-11-22T15:04:22.873Z,9.80
2017-11-22T15:06:50.660Z,9.80
2017-11-22T15:09:19.236Z,9.70
2017-11-22T15:11:47.773Z,9.80
2017-11-22T15:14:15.546Z,9.70
2017-11-22T15:16:43.398Z,9.80
2017-11-22T15:19:11.151Z,9.70
2017-11-22T15:21:38.917Z,9.60
2017-11-22T15:24:06.763Z,9.50
2017-11-22T15:26:34.575Z,9.40
2017-11-22T15:29:02.336Z,9.50
2017-11-22T15:31:30.151Z,9.50
2017-11-22T15:33:57.907Z,9.50
2017-11-22T15:36:25.664Z,9.40
2017-11-22T15:38:53.515Z,9.40
2017-11-22T15:41:21.265Z,9.40
2017-11-22T15:43:49.800Z,9.30
2017-11-22T15:46:17.612Z,9.30
2017-11-22T15:48:46.157Z,9.20
2017-11-22T15:51:13.910Z,9.20
2017-11-22T15:53:41.718Z,9.20
2017-11-22T15:56:10.245Z,9.30
2017-11-22T15:58:38.020Z,9.30
2017-11-22T16:01:05.850Z,9.30
2017-11-22T16:03:33.624Z,9.30
2017-11-22T16:06:01.376Z,9.30
2017-11-22T16:08:29.187Z,9.30
2017-11-22T16:10:56.959Z,9.30
2017-11-22T16:13:25.503Z,9.40
2017-11-22T16:15:54.083Z,9.40
2017-11-22T16:18:21.844Z,9.40
2017-11-22T16:20:49.606Z,9.40
2017-11-22T16:23:17.489Z,9.30
2017-11-22T16:25:45.243Z,9.30
2017-11-22T16:28:13.251Z,9.30
2017-11-22T16:30:41.077Z,9.30
2017-11-22T16:33:08.840Z,9.40
2017-11-22T16:35:37.415Z,9.40
2017-11-22T16:38:05.240Z,9.40
2017-11-22T16:40:33.046Z,9.40
2017-11-22T16:43:00.855Z,9.40
2017-11-22T16:45:28.691Z,9.40
2017-11-22T16:47:58.287Z,9.30
2017-11-22T16:50:26.043Z,9.30
2017-11-22T16:52:53.859Z,9.40
2017-11-22T16:55:21.632Z,9.40
2017-11-22T16:57:49.420Z,9.40
2017-11-22T17:00:17.260Z,9.30
2017-11-22T17:02:45.010Z,9.30
2017-11-22T17:05:12.757Z,9.30
2017-11-22T17:07:40.732Z,9.30
2017-11-22T17:10:08.505Z,9.30
2017-11-22T17:12:36.302Z,9.30
2017-11-22T17:15:04.135Z,9.30
2017-11-22T17:17:31.897Z,9.40
2017-11-22T17:20:01.335Z,9.40
2017-11-22T17:22:29.165Z,9.40
2017-11-22T17:24:57.690Z,9.30
2017-11-22T17:27:26.257Z,9.20
2017-11-22T17:29:54.114Z,9.20
2017-11-22T17:32:22.045Z,9.10
2017-11-22T17:34:49.836Z,9.10
2017-11-22T17:37:17.651Z,9.20
2017-11-22T17:39:46.104Z,9.10
2017-11-22T17:42:14.647Z,9.00
2017-11-22T17:44:43.387Z,9.00
2017-11-22T17:47:11.921Z,8.90
2017-11-22T17:49:39.672Z,8.90
2017-11-22T17:52:08.249Z,8.90
2017-11-22T17:54:36.035Z,8.90
2017-11-22T17:57:03.800Z,8.90
2017-11-22T17:59:31.619Z,8.90
2017-11-22T18:01:59.432Z,8.90
2017-11-22T18:04:27.975Z,9.00
2017-11-22T18:06:55.782Z,8.90
2017-11-22T18:09:24.339Z,8.90
2017-11-22T18:11:52.086Z,8.90
2017-11-22T18:14:19.891Z,8.90
2017-11-22T18:16:48.418Z,8.90
2017-11-22T18:19:16.168Z,8.80
2017-11-22T18:21:43.984Z,8.90
2017-11-22T18:24:11.747Z,8.80
2017-11-22T18:26:39.508Z,8.80
2017-11-22T18:29:07.323Z,8.70
2017-11-22T18:31:35.083Z,8.50
2017-11-22T18:34:02.847Z,8.50
2017-11-22T18:36:30.666Z,8.40
2017-11-22T18:38:59.201Z,8.40
2017-11-22T18:41:27.068Z,8.30
2017-11-22T18:43:54.884Z,8.30
2017-11-22T18:46:23.418Z,8.20
2017-11-22T18:48:51.945Z,8.20
2017-11-22T18:51:20.518Z,8.10
2017-11-22T18:53:49.047Z,8.10
2017-11-22T18:56:16.801Z,8.00
2017-11-22T18:58:44.618Z,8.00
2017-11-22T19:01:13.153Z,7.80
2017-11-22T19:03:41.681Z,7.80
2017-11-22T19:06:10.277Z,7.80
2017-11-22T19:08:38.036Z,7.80
2017-11-22T19:11:05.787Z,7.70
2017-11-22T19:13:34.371Z,7.70
2017-11-22T19:16:02.894Z,7.60
2017-11-22T19:18:30.658Z,7.60
2017-11-22T19:20:59.443Z,7.50
2017-11-22T19:23:27.997Z,7.50
2017-11-22T19:25:55.801Z,7.50
2017-11-22T19:28:23.610Z,7.40
2017-11-22T19:30:51.363Z,7.30
2017-11-22T19:33:19.884Z,7.30
2017-11-22T19:35:47.696Z,7.20
2017-11-22T19:38:16.208Z,7.10
2017-11-22T19:40:43.962Z,7.10
2017-11-22T19:43:11.777Z,7.00
2017-11-22T19:45:39.629Z,7.10
2017-11-22T19:48:07.480Z,7.00
2017-11-22T19:50:35.300Z,7.00
2017-11-22T19:53:03.855Z,6.90
2017-11-22T19:55:31.616Z,6.90
2017-11-22T19:57:59.417Z,7.00
2017-11-22T20:00:27.196Z,7.00
2017-11-22T20:02:54.976Z,6.90
2017-11-22T20:05:22.786Z,6.90
2017-11-22T20:07:51.564Z,6.90
2017-11-22T20:10:20.161Z,6.90
2017-11-22T20:12:48.824Z,6.90
2017-11-22T20:15:16.616Z,6.80
2017-11-22T20:17:44.514Z,6.90
2017-11-22T20:20:12.401Z,6.80
2017-11-22T20:22:40.152Z,6.80
2017-11-22T20:25:07.906Z,6.80
2017-11-22T20:27:35.712Z,6.70
2017-11-22T20:30:04.242Z,6.60
2017-11-22T20:32:31.999Z,6.60
2017-11-22T20:34:59.807Z,6.60
2017-11-22T20:37:27.602Z,6.50
2017-11-22T20:39:55.437Z,6.50
2017-11-22T20:42:24.191Z,6.40
2017-11-22T20:44:51.947Z,6.40
2017-11-22T20:47:19.796Z,6.40
2017-11-22T20:49:47.640Z,6.40
2017-11-22T20:52:15.409Z,6.40
2017-11-22T20:54:43.172Z,6.40
2017-11-22T20:57:10.982Z,6.40
2017-11-22T20:59:38.762Z,6.40
2017-11-22T21:02:07.272Z,6.30
2017-11-22T21:04:35.102Z,6.30
2017-11-22T21:07:03.698Z,6.20
2017-11-22T21:09:32.427Z,6.20
2017-11-22T21:12:00.256Z,6.20
2017-11-22T21:14:28.015Z,6.10
2017-11-22T21:16:55.786Z,6.20
2017-11-22T21:19:23.710Z,6.10
2017-11-22T21:21:51.494Z,6.00
2017-11-22T21:24:19.318Z,6.00
2017-11-22T21:26:47.288Z,6.00
2017-11-22T21:29:15.044Z,5.90
2017-11-22T21:31:42.791Z,5.90
2017-11-22T21:34:10.599Z,5.90
2017-11-22T21:36:39.109Z,5.90
2017-11-22T21:39:06.863Z,5.90
2017-11-22T21:41:34.680Z,5.90
2017-11-22T21:44:02.435Z,5.90
2017-11-22T21:46:30.195Z,5.80
2017-11-22T21:48:58.015Z,5.80
2017-11-22T21:51:25.777Z,5.80
2017-11-22T21:53:54.093Z,5.80
2017-11-22T21:56:21.892Z,5.80
2017-11-22T21:58:50.412Z,5.80
2017-11-22T22:01:18.160Z,5.80
2017-11-22T22:03:46.081Z,5.80
2017-11-22T22:06:13.923Z,5.80
2017-11-22T22:08:41.881Z,5.80
2017-11-22T22:11:10.314Z,5.70
2017-11-22T22:13:38.070Z,5.70
2017-11-22T22:16:06.588Z,5.70
2017-11-22T22:18:34.448Z,5.70
2017-11-22T22:21:02.211Z,5.70
2017-11-22T22:23:29.988Z,5.60
2017-11-22T22:25:57.811Z,5.60
2017-11-22T22:28:25.586Z,5.60
2017-11-22T22:30:54.583Z,5.60
2017-11-22T22:33:22.393Z,5.60
2017-11-22T22:35:50.136Z,5.70
2017-11-22T22:38:17.892Z,5.60
2017-11-22T22:40:45.704Z,5.50
2017-11-22T22:43:13.450Z,5.50
2017-11-22T22:45:41.965Z,5.50
2017-11-22T22:48:09.772Z,5.50
2017-11-22T22:50:37.526Z,5.50
2017-11-22T22:53:06.070Z,5.40
2017-11-22T22:55:33.902Z,5.40
2017-11-22T22:58:02.415Z,5.30
2017-11-22T23:00:30.159Z,5.30
2017-11-22T23:02:57.965Z,5.30
2017-11-22T23:05:25.713Z,5.40
2017-11-22T23:07:53.471Z,5.40
2017-11-22T23:10:21.272Z,5.40
2017-11-22T23:12:49.022Z,5.30
2017-11-22T23:15:16.778Z,5.40
2017-11-22T23:17:44.580Z,5.40
2017-11-22T23:20:13.099Z,5.30
2017-11-22T23:22:40.843Z,5.30
2017-11-22T23:25:08.647Z,5.30
2017-11-22T23:27:36.423Z,5.20
2017-11-22T23:30:04.957Z,5.20
2017-11-22T23:32:32.762Z,5.20
2017-11-22T23:35:00.518Z,5.20
2017-11-22T23:37:28.277Z,5.20
2017-11-22T23:39:56.084Z,5.20
2017-11-22T23:42:23.857Z,5.20
2017-11-22T23:44:51.604Z,5.20
2017-11-22T23:47:19.426Z,5.20
2017-11-22T23:49:47.172Z,5.10
2017-11-22T23:52:14.918Z,5.10
2017-11-22T23:54:42.729Z,5.10
2017-11-22T23:57:11.258Z,5.10
2017-11-22T23:59:39.015Z,5.10
